This is the latest recevied weather packets stored in our database for station/object PI1GDA-1. If no packets are shown the sender has not sent any weather packets the latest 10 day(s).
| Time | Temp. | Humidity | Pressure | Rain* | Wind** | Luminosity | Snow |
|---|---|---|---|---|---|---|---|
| 1778119745 | 7.78° C | 85% | 1014.7 hPa | 0 mm | - | - | - |
| 1778119144 | 8.33° C | 85% | 1014.7 hPa | 0 mm | - | - | - |
| 1778118543 | 10.56° C | 78% | 1013.9 hPa | 0 mm | - | - | - |
| 1778117942 | 8.33° C | 85% | 1014.7 hPa | 0 mm | - | - | - |
| 1778117340 | 8.33° C | 84% | 1014.5 hPa | 0 mm | - | - | - |
| 1778116739 | 8.89° C | 85% | 1014.4 hPa | 0 mm | - | - | - |
| 1778116138 | 8.89° C | 84% | 1014.4 hPa | 0 mm | - | - | - |
| 1778115537 | 8.89° C | 84% | 1014.3 hPa | 0 mm | - | - | - |
| 1778114937 | 8.89° C | 84% | 1014.3 hPa | 0 mm | - | - | - |
| 1778114334 | 9.44° C | 84% | 1014.3 hPa | 0 mm | - | - | - |
| 1778113733 | 9.44° C | 83% | 1014.2 hPa | 0 mm | - | - | - |
| 1778113132 | 9.44° C | 83% | 1014.1 hPa | 0 mm | - | - | - |
| 1778112532 | 9.44° C | 83% | 1014.2 hPa | 0 mm | - | - | - |
| 1778111931 | 9.44° C | 82% | 1014 hPa | 0 mm | - | - | - |
| 1778111330 | 10° C | 81% | 1014 hPa | 0 mm | - | - | - |
| 1778110729 | 10° C | 81% | 1013.9 hPa | 0 mm | - | - | - |
| 1778110128 | 10° C | 80% | 1013.9 hPa | 0 mm | - | - | - |
| 1778109528 | 10.56° C | 79% | 1013.9 hPa | 0 mm | - | - | - |
| 1778108927 | 10.56° C | 78% | 1013.9 hPa | 0 mm | - | - | - |
| 1778108326 | 11.11° C | 78% | 1013.8 hPa | 0 mm | - | - | - |
| 1778107726 | 11.11° C | 77% | 1013.8 hPa | 0 mm | - | - | - |
| 1778107125 | 11.11° C | 77% | 1013.7 hPa | 0 mm | - | - | - |
| 1778106525 | 11.11° C | 76% | 1013.7 hPa | 0 mm | - | - | - |
| 1778105924 | 11.67° C | 76% | 1013.7 hPa | 0 mm | - | - | - |
| 1778105323 | 11.67° C | 75% | 1013.6 hPa | 0 mm | - | - | - |
* Rain latest hour (hover to see other rain measurements)
** Current wind speed in m/s (hover to see current wind gust speed)